createdAt,value
2023-02-04T00:00:31.011Z,5.28
2023-02-04T00:01:34.469Z,4.22
2023-02-04T00:02:38.795Z,4.80
2023-02-04T00:03:42.085Z,5.40
2023-02-04T00:04:45.221Z,4.82
2023-02-04T00:05:48.530Z,4.43
2023-02-04T00:06:51.721Z,5.85
2023-02-04T00:07:54.955Z,4.63
2023-02-04T00:08:58.125Z,4.70
2023-02-04T00:10:02.002Z,4.55
2023-02-04T00:11:05.781Z,4.25
2023-02-04T00:12:10.822Z,4.60
2023-02-04T00:13:13.991Z,6.00
2023-02-04T00:14:17.070Z,4.28
2023-02-04T00:15:20.235Z,4.53
2023-02-04T00:16:23.339Z,5.28
2023-02-04T00:17:26.590Z,5.40
2023-02-04T00:18:30.053Z,5.28
2023-02-04T00:19:33.191Z,4.53
2023-02-04T00:20:36.281Z,5.72
2023-02-04T00:21:39.312Z,4.78
2023-02-04T00:22:42.865Z,4.55
2023-02-04T00:23:46.008Z,5.13
2023-02-04T00:24:50.603Z,5.13
2023-02-04T00:25:53.743Z,5.72
2023-02-04T00:26:57.422Z,5.15
2023-02-04T00:28:00.639Z,5.05
2023-02-04T00:29:03.862Z,5.47
2023-02-04T00:30:08.915Z,5.65
2023-02-04T00:31:12.096Z,4.93
2023-02-04T00:32:16.199Z,5.85
2023-02-04T00:33:20.172Z,5.82
2023-02-04T00:34:23.919Z,6.80
2023-02-04T00:35:27.246Z,5.00
2023-02-04T00:36:30.354Z,5.70
2023-02-04T00:37:33.623Z,5.22
2023-02-04T00:38:36.697Z,7.03
2023-02-04T00:39:39.978Z,5.60
2023-02-04T00:40:43.049Z,6.07
2023-02-04T00:41:46.835Z,7.13
2023-02-04T00:42:50.767Z,5.25
2023-02-04T00:43:53.829Z,6.05
2023-02-04T00:44:56.914Z,5.53
2023-02-04T00:46:00.193Z,5.90
2023-02-04T00:47:04.181Z,6.00
2023-02-04T00:48:07.252Z,4.22
2023-02-04T00:49:11.989Z,5.90
2023-02-04T00:50:15.626Z,6.78
2023-02-04T00:51:20.391Z,5.50
2023-02-04T00:52:24.286Z,4.72
2023-02-04T00:53:27.455Z,6.75
2023-02-04T00:54:30.861Z,6.53
2023-02-04T00:55:37.665Z,5.53
2023-02-04T00:56:42.053Z,5.53
2023-02-04T00:57:47.660Z,5.10
2023-02-04T00:58:50.717Z,4.57
2023-02-04T00:59:53.783Z,6.18
2023-02-04T01:00:57.005Z,5.10
2023-02-04T01:02:00.487Z,6.35
2023-02-04T01:03:05.613Z,5.10
2023-02-04T01:04:08.938Z,6.70
2023-02-04T01:05:12.044Z,5.72
2023-02-04T01:06:15.269Z,6.25
2023-02-04T01:07:18.472Z,6.20
2023-02-04T01:08:21.812Z,5.65
2023-02-04T01:09:25.115Z,5.30
2023-02-04T01:10:29.491Z,4.70
2023-02-04T01:11:34.090Z,5.40
2023-02-04T01:12:37.438Z,5.63
2023-02-04T01:13:42.139Z,6.07
2023-02-04T01:14:45.462Z,5.88
2023-02-04T01:15:48.552Z,5.72
2023-02-04T01:16:51.728Z,6.35
2023-02-04T01:17:54.821Z,6.25
2023-02-04T01:18:57.950Z,6.28
2023-02-04T01:20:01.200Z,5.72
2023-02-04T01:21:05.120Z,5.32
2023-02-04T01:22:08.293Z,5.55
2023-02-04T01:23:11.518Z,6.55
2023-02-04T01:24:14.771Z,7.03
2023-02-04T01:25:36.563Z,6.40
2023-02-04T01:26:39.893Z,6.00
2023-02-04T01:27:46.036Z,5.28
2023-02-04T01:28:49.433Z,4.85
2023-02-04T01:29:52.596Z,6.38
2023-02-04T01:30:55.728Z,6.13
2023-02-04T01:31:58.989Z,6.32
2023-02-04T01:33:02.179Z,7.20
2023-02-04T01:34:05.428Z,5.45
2023-02-04T01:35:08.909Z,6.22
2023-02-04T01:36:12.187Z,5.72
2023-02-04T01:37:15.611Z,4.95
2023-02-04T01:38:19.043Z,6.65
2023-02-04T01:39:22.098Z,6.38
2023-02-04T01:40:25.416Z,5.88
2023-02-04T01:41:28.598Z,6.25
2023-02-04T01:42:31.848Z,5.80
2023-02-04T01:43:35.307Z,6.65
2023-02-04T01:44:39.682Z,6.00
2023-02-04T01:45:43.338Z,5.15
2023-02-04T01:46:46.542Z,5.22
2023-02-04T01:47:49.906Z,5.95
2023-02-04T01:48:54.240Z,6.40
2023-02-04T01:49:57.792Z,6.15
2023-02-04T01:51:11.099Z,5.82
2023-02-04T01:52:14.473Z,5.85
2023-02-04T01:53:27.264Z,6.55
2023-02-04T01:54:31.416Z,5.45
2023-02-04T01:55:34.616Z,5.85
2023-02-04T01:56:37.879Z,6.32
2023-02-04T01:57:41.848Z,5.75
2023-02-04T01:58:45.707Z,5.95
2023-02-04T01:59:55.503Z,6.22
2023-02-04T02:00:58.709Z,6.13
2023-02-04T02:02:01.886Z,5.35
2023-02-04T02:03:05.933Z,5.43
2023-02-04T02:04:31.406Z,5.18
2023-02-04T02:05:47.820Z,5.75
2023-02-04T02:06:57.328Z,4.85
2023-02-04T02:08:02.986Z,5.35
2023-02-04T02:09:06.469Z,5.55
2023-02-04T02:10:12.455Z,5.05
2023-02-04T02:11:15.518Z,5.00
2023-02-04T02:12:18.581Z,4.35
2023-02-04T02:13:21.978Z,5.35
2023-02-04T02:14:25.090Z,5.72
2023-02-04T02:15:28.664Z,4.65
2023-02-04T02:16:32.100Z,5.65
2023-02-04T02:17:35.822Z,4.50
2023-02-04T02:18:38.962Z,4.80
2023-02-04T02:19:44.364Z,4.35
2023-02-04T02:20:47.458Z,4.68
2023-02-04T02:22:18.547Z,4.60
2023-02-04T02:24:27.551Z,4.53
2023-02-04T02:25:30.796Z,4.25
2023-02-04T02:26:33.993Z,4.72
2023-02-04T02:27:37.267Z,4.88
2023-02-04T02:28:40.915Z,4.47
2023-02-04T02:29:44.537Z,4.88
2023-02-04T02:30:49.813Z,4.72
2023-02-04T02:31:56.388Z,4.28
2023-02-04T02:33:02.235Z,5.43
2023-02-04T02:34:05.491Z,5.05
2023-02-04T02:35:09.339Z,4.05
2023-02-04T02:36:12.653Z,4.90
2023-02-04T02:37:15.820Z,4.65
2023-02-04T02:38:20.922Z,4.18
2023-02-04T02:39:24.544Z,4.82
2023-02-04T02:40:27.789Z,4.07
2023-02-04T02:41:31.600Z,3.65
2023-02-04T02:42:35.169Z,4.45
2023-02-04T02:43:39.033Z,4.20
2023-02-04T02:44:43.003Z,4.13
2023-02-04T02:45:46.457Z,4.30
2023-02-04T02:46:49.819Z,3.78
2023-02-04T02:47:53.503Z,3.35
2023-02-04T02:48:56.685Z,4.03
2023-02-04T02:49:59.963Z,4.15
2023-02-04T02:51:03.180Z,4.43
2023-02-04T02:52:06.544Z,4.18
2023-02-04T02:53:15.916Z,3.67
2023-02-04T02:55:35.085Z,3.60
2023-02-04T02:56:40.201Z,4.45
2023-02-04T02:57:45.683Z,4.18
2023-02-04T02:58:48.908Z,4.03
2023-02-04T02:59:52.159Z,3.83
2023-02-04T03:00:56.852Z,3.72
2023-02-04T03:02:03.731Z,4.03
2023-02-04T03:03:18.320Z,3.70
2023-02-04T03:04:23.130Z,3.05
2023-02-04T03:05:29.243Z,4.18
2023-02-04T03:06:33.429Z,3.55
2023-02-04T03:07:36.963Z,3.75
2023-02-04T03:08:41.488Z,4.40
2023-02-04T03:09:44.872Z,4.45
2023-02-04T03:10:48.322Z,3.97
2023-02-04T03:11:52.059Z,3.95
2023-02-04T03:12:55.266Z,3.90
2023-02-04T03:14:01.766Z,4.70
2023-02-04T03:15:06.907Z,3.85
2023-02-04T03:16:10.522Z,4.60
2023-02-04T03:17:13.780Z,4.28
2023-02-04T03:18:19.645Z,4.93
2023-02-04T03:19:26.050Z,4.55
2023-02-04T03:20:32.328Z,4.05
2023-02-04T03:21:36.531Z,4.47
2023-02-04T03:22:39.944Z,4.28
2023-02-04T03:23:43.336Z,4.60
2023-02-04T03:24:46.784Z,4.57
2023-02-04T03:25:50.586Z,4.47
2023-02-04T03:26:54.173Z,3.95
2023-02-04T03:27:59.000Z,3.83
2023-02-04T03:29:02.326Z,3.78
2023-02-04T03:30:06.409Z,3.47
2023-02-04T03:31:10.002Z,4.28
2023-02-04T03:32:13.497Z,2.65
2023-02-04T03:33:16.651Z,4.70
2023-02-04T03:34:19.719Z,4.03
2023-02-04T03:35:23.111Z,4.47
2023-02-04T03:36:26.197Z,4.05
2023-02-04T03:37:29.450Z,4.85
2023-02-04T03:38:34.514Z,3.60
2023-02-04T03:39:37.663Z,4.55
2023-02-04T03:40:40.877Z,3.97
2023-02-04T03:41:44.114Z,4.30
2023-02-04T03:42:47.220Z,4.03
2023-02-04T03:43:50.284Z,4.43
2023-02-04T03:44:53.433Z,3.88
2023-02-04T03:45:56.586Z,4.05
2023-02-04T03:47:00.190Z,4.90
2023-02-04T03:48:03.650Z,4.30
2023-02-04T03:49:06.709Z,4.85
2023-02-04T03:50:12.526Z,3.88
2023-02-04T03:51:15.715Z,3.67
2023-02-04T03:52:20.303Z,4.15
2023-02-04T03:53:24.482Z,3.95
2023-02-04T03:54:27.616Z,4.28
2023-02-04T03:55:32.922Z,4.22
2023-02-04T03:56:36.019Z,4.65
2023-02-04T03:57:39.175Z,4.93
2023-02-04T03:58:42.301Z,4.43
2023-02-04T03:59:45.447Z,4.72
2023-02-04T04:00:48.608Z,5.20
2023-02-04T04:01:52.663Z,4.35
2023-02-04T04:02:57.561Z,3.88
2023-02-04T04:04:00.784Z,4.50
2023-02-04T04:05:04.061Z,4.00
2023-02-04T04:06:10.014Z,4.65
2023-02-04T04:07:13.109Z,4.13
2023-02-04T04:08:16.465Z,4.05
2023-02-04T04:09:19.819Z,4.32
2023-02-04T04:10:23.059Z,4.50
2023-02-04T04:11:26.273Z,4.40
2023-02-04T04:12:29.514Z,4.10
2023-02-04T04:13:32.554Z,3.85
2023-02-04T04:14:35.793Z,4.05
2023-02-04T04:15:38.990Z,4.43
2023-02-04T04:16:42.125Z,4.43
2023-02-04T04:17:45.215Z,4.60
2023-02-04T04:18:48.814Z,4.47
2023-02-04T04:19:52.434Z,4.78
2023-02-04T04:20:55.594Z,4.22
2023-02-04T04:21:58.791Z,4.13
2023-02-04T04:23:01.953Z,4.25
2023-02-04T04:24:05.250Z,3.67
2023-02-04T04:25:09.069Z,4.68
2023-02-04T04:26:12.358Z,4.40
2023-02-04T04:27:15.516Z,4.60
2023-02-04T04:28:19.145Z,3.80
2023-02-04T04:29:22.315Z,4.03
2023-02-04T04:30:25.414Z,4.18
2023-02-04T04:31:28.664Z,3.75
2023-02-04T04:32:31.798Z,4.20
2023-02-04T04:33:35.132Z,4.10
2023-02-04T04:34:38.468Z,3.35
2023-02-04T04:35:41.632Z,3.60
2023-02-04T04:36:44.832Z,4.30
2023-02-04T04:37:47.895Z,4.10
2023-02-04T04:38:51.031Z,4.07
2023-02-04T04:39:54.219Z,3.97
2023-02-04T04:40:57.347Z,4.32
2023-02-04T04:42:00.856Z,4.30
2023-02-04T04:43:04.508Z,3.70
2023-02-04T04:44:07.701Z,3.53
2023-02-04T04:45:11.912Z,3.75
2023-02-04T04:46:15.170Z,3.95
2023-02-04T04:47:18.375Z,3.65
2023-02-04T04:48:22.009Z,3.95
2023-02-04T04:49:25.473Z,4.05
2023-02-04T04:50:28.577Z,3.70
2023-02-04T04:51:32.446Z,4.65
2023-02-04T04:52:35.554Z,3.63
2023-02-04T04:53:38.598Z,3.60
2023-02-04T04:54:41.644Z,3.47
2023-02-04T04:55:44.687Z,4.00
2023-02-04T04:56:47.927Z,4.13
2023-02-04T04:57:51.516Z,3.75
2023-02-04T04:58:54.674Z,3.70
2023-02-04T04:59:57.999Z,4.40
2023-02-04T05:01:01.191Z,3.25
2023-02-04T05:02:04.411Z,3.72
2023-02-04T05:03:07.814Z,4.10
2023-02-04T05:04:10.879Z,4.40
2023-02-04T05:05:14.516Z,4.57
2023-02-04T05:06:17.769Z,4.00
2023-02-04T05:07:20.962Z,3.72
2023-02-04T05:08:24.128Z,4.18
2023-02-04T05:09:27.401Z,3.47
2023-02-04T05:10:30.874Z,4.60
2023-02-04T05:11:34.148Z,3.75
2023-02-04T05:12:37.376Z,3.78
2023-02-04T05:13:40.506Z,3.55
2023-02-04T05:14:43.868Z,4.20
2023-02-04T05:15:47.014Z,4.57
2023-02-04T05:16:50.196Z,4.25
2023-02-04T05:17:53.871Z,4.03
2023-02-04T05:18:59.152Z,4.15
2023-02-04T05:20:02.285Z,4.45
2023-02-04T05:21:06.699Z,4.80
2023-02-04T05:22:09.886Z,4.40
2023-02-04T05:23:13.046Z,4.05
2023-02-04T05:24:16.129Z,4.05
2023-02-04T05:25:19.612Z,3.90
2023-02-04T05:26:30.311Z,3.95
2023-02-04T05:27:34.269Z,4.22
2023-02-04T05:28:37.397Z,4.10
2023-02-04T05:29:40.549Z,4.18
2023-02-04T05:30:43.693Z,3.83
2023-02-04T05:31:46.832Z,4.78
2023-02-04T05:32:50.407Z,3.13
2023-02-04T05:33:54.690Z,3.83
2023-02-04T05:34:57.782Z,3.90
2023-02-04T05:36:00.918Z,4.13
2023-02-04T05:37:04.213Z,4.05
2023-02-04T05:38:07.341Z,4.82
2023-02-04T05:39:10.476Z,4.53
2023-02-04T05:40:14.071Z,4.07
2023-02-04T05:41:17.296Z,4.38
2023-02-04T05:42:20.629Z,4.82
2023-02-04T05:43:24.415Z,4.35
2023-02-04T05:44:27.741Z,4.30
2023-02-04T05:45:31.144Z,4.20
2023-02-04T05:46:34.369Z,4.93
2023-02-04T05:47:37.696Z,4.88
2023-02-04T05:48:40.846Z,4.38
2023-02-04T05:49:43.925Z,4.45
2023-02-04T05:50:47.036Z,4.63
2023-02-04T05:51:50.109Z,4.40
2023-02-04T05:52:53.330Z,4.68
2023-02-04T05:53:56.418Z,3.90
2023-02-04T05:54:59.723Z,5.05
2023-02-04T05:56:02.843Z,4.55
2023-02-04T05:57:06.184Z,3.85
2023-02-04T05:58:09.306Z,4.60
2023-02-04T05:59:12.395Z,4.80
2023-02-04T06:00:15.573Z,4.43
2023-02-04T06:01:19.280Z,4.55
2023-02-04T06:02:22.459Z,5.05
2023-02-04T06:03:25.557Z,4.32
2023-02-04T06:04:28.795Z,4.45
2023-02-04T06:05:32.702Z,4.25
2023-02-04T06:06:36.137Z,4.07
2023-02-04T06:07:39.418Z,4.15
2023-02-04T06:08:42.691Z,4.50
2023-02-04T06:09:45.759Z,4.20
2023-02-04T06:10:49.028Z,3.88
2023-02-04T06:11:52.182Z,4.57
2023-02-04T06:12:55.208Z,4.28
2023-02-04T06:13:58.667Z,3.60
2023-02-04T06:15:01.929Z,4.13
2023-02-04T06:16:05.258Z,3.83
2023-02-04T06:17:08.418Z,3.95
2023-02-04T06:18:11.732Z,4.03
2023-02-04T06:19:14.803Z,4.43
2023-02-04T06:20:18.246Z,4.43
2023-02-04T06:21:21.499Z,3.80
2023-02-04T06:22:26.016Z,3.80
2023-02-04T06:23:29.139Z,4.10
2023-02-04T06:24:32.229Z,3.97
2023-02-04T06:25:35.855Z,4.28
2023-02-04T06:26:39.194Z,4.22
2023-02-04T06:27:42.686Z,3.72
2023-02-04T06:28:45.773Z,4.05
2023-02-04T06:29:54.711Z,3.80
2023-02-04T06:30:58.214Z,3.88
2023-02-04T06:32:01.394Z,3.60
2023-02-04T06:33:04.720Z,3.58
2023-02-04T06:34:08.019Z,3.35
2023-02-04T06:35:13.200Z,2.88
2023-02-04T06:36:16.822Z,3.70
2023-02-04T06:37:20.418Z,3.67
2023-02-04T06:38:23.521Z,3.15
2023-02-04T06:39:26.615Z,3.40
2023-02-04T06:40:30.043Z,3.25
2023-02-04T06:41:33.387Z,3.00
2023-02-04T06:42:36.418Z,3.03
2023-02-04T06:43:39.616Z,3.05
2023-02-04T06:44:42.681Z,3.38
2023-02-04T06:45:45.959Z,2.50
2023-02-04T06:46:49.109Z,2.83
2023-02-04T06:47:52.231Z,2.70
2023-02-04T06:48:56.587Z,2.97
2023-02-04T06:49:59.752Z,3.08
2023-02-04T06:51:03.317Z,2.75
2023-02-04T06:52:06.817Z,3.28
2023-02-04T06:53:10.112Z,3.25
2023-02-04T06:54:13.261Z,2.78
2023-02-04T06:55:17.732Z,2.90
2023-02-04T06:56:20.968Z,2.88
2023-02-04T06:57:24.171Z,2.72
2023-02-04T06:58:27.356Z,2.47
2023-02-04T06:59:33.206Z,2.72
2023-02-04T07:00:36.266Z,3.22
2023-02-04T07:01:39.507Z,3.25
2023-02-04T07:02:42.882Z,2.90
2023-02-04T07:03:45.993Z,2.67
2023-02-04T07:04:49.376Z,3.08
2023-02-04T07:05:54.247Z,3.22
2023-02-04T07:06:57.726Z,2.58
2023-02-04T07:08:01.044Z,2.40
2023-02-04T07:09:04.533Z,3.03
2023-02-04T07:10:07.688Z,2.55
2023-02-04T07:11:10.786Z,2.83
2023-02-04T07:12:16.071Z,2.95
2023-02-04T07:13:19.346Z,2.65
2023-02-04T07:14:22.463Z,3.17
2023-02-04T07:15:25.735Z,2.70
2023-02-04T07:16:28.875Z,2.65
2023-02-04T07:17:32.023Z,2.38
2023-02-04T07:18:35.156Z,2.45
2023-02-04T07:19:39.062Z,3.90
2023-02-04T07:20:42.540Z,3.10
2023-02-04T07:21:45.665Z,2.83
2023-02-04T07:22:48.688Z,3.22
2023-02-04T07:23:51.812Z,3.13
2023-02-04T07:24:55.062Z,3.13
2023-02-04T07:25:59.459Z,2.75
2023-02-04T07:27:02.831Z,3.03
2023-02-04T07:28:06.378Z,2.95
2023-02-04T07:29:14.861Z,2.65
2023-02-04T07:30:23.883Z,2.60
2023-02-04T07:31:27.162Z,3.35
2023-02-04T07:32:32.900Z,2.72
2023-02-04T07:33:36.372Z,3.63
2023-02-04T07:34:39.480Z,2.88
2023-02-04T07:35:42.777Z,3.72
2023-02-04T07:36:46.203Z,2.67
2023-02-04T07:37:49.496Z,3.55
2023-02-04T07:38:52.639Z,2.88
2023-02-04T07:39:55.695Z,2.53
2023-02-04T07:40:58.949Z,3.25
2023-02-04T07:42:02.190Z,2.60
2023-02-04T07:43:11.385Z,3.00
2023-02-04T07:44:15.073Z,3.40
2023-02-04T07:45:18.269Z,2.95
2023-02-04T07:46:21.552Z,2.78
2023-02-04T07:47:24.813Z,3.28
2023-02-04T07:48:27.896Z,2.75
2023-02-04T07:49:30.961Z,2.92
2023-02-04T07:50:34.434Z,3.28
2023-02-04T07:51:37.698Z,3.50
2023-02-04T07:52:40.818Z,2.80
2023-02-04T07:53:44.146Z,2.63
2023-02-04T07:54:47.360Z,3.17
2023-02-04T07:55:50.856Z,3.10
2023-02-04T07:56:54.074Z,2.58
2023-02-04T07:57:57.490Z,3.40
2023-02-04T07:59:00.837Z,2.90
2023-02-04T08:00:06.771Z,2.38
2023-02-04T08:01:15.781Z,2.55
2023-02-04T08:02:19.047Z,2.78
2023-02-04T08:03:22.493Z,2.58
2023-02-04T08:04:25.700Z,2.60
2023-02-04T08:05:30.492Z,2.75
2023-02-04T08:06:33.942Z,2.90
2023-02-04T08:07:37.802Z,2.70
2023-02-04T08:08:40.950Z,2.20
2023-02-04T08:09:44.052Z,2.72
2023-02-04T08:10:47.765Z,3.10
2023-02-04T08:11:50.794Z,2.72
2023-02-04T08:12:54.094Z,2.90
2023-02-04T08:13:57.215Z,2.53
2023-02-04T08:15:01.520Z,2.80
2023-02-04T08:16:05.617Z,2.78
2023-02-04T08:17:08.877Z,2.33
2023-02-04T08:18:12.088Z,2.53
2023-02-04T08:19:19.135Z,2.38
2023-02-04T08:20:22.484Z,2.92
2023-02-04T08:21:25.666Z,2.75
2023-02-04T08:22:28.806Z,2.25
2023-02-04T08:23:33.197Z,2.42
2023-02-04T08:24:36.546Z,2.30
2023-02-04T08:25:40.137Z,2.00
2023-02-04T08:26:44.956Z,1.98
2023-02-04T08:27:48.419Z,2.45
2023-02-04T08:28:51.607Z,2.13
2023-02-04T08:29:55.456Z,2.13
2023-02-04T08:30:58.675Z,2.08
2023-02-04T08:32:02.277Z,2.65
2023-02-04T08:33:05.586Z,2.50
2023-02-04T08:34:09.050Z,2.15
2023-02-04T08:35:12.799Z,2.25
2023-02-04T08:36:16.006Z,2.40
2023-02-04T08:37:19.072Z,2.38
2023-02-04T08:38:22.210Z,2.05
2023-02-04T08:39:25.519Z,1.52
2023-02-04T08:40:28.825Z,2.53
2023-02-04T08:41:33.626Z,2.47
2023-02-04T08:42:36.694Z,2.00
2023-02-04T08:43:39.977Z,2.15
2023-02-04T08:44:43.739Z,2.53
2023-02-04T08:45:46.823Z,2.47
2023-02-04T08:46:51.406Z,2.60
2023-02-04T08:47:54.402Z,2.42
2023-02-04T08:48:57.975Z,1.92
2023-02-04T08:50:01.138Z,2.50
2023-02-04T08:51:07.051Z,2.53
2023-02-04T08:52:10.201Z,2.17
2023-02-04T08:53:13.357Z,2.53
2023-02-04T08:54:16.471Z,2.42
2023-02-04T08:55:19.587Z,2.85
2023-02-04T08:56:22.738Z,2.90
2023-02-04T08:57:25.874Z,2.75
2023-02-04T08:58:29.108Z,2.25
2023-02-04T08:59:32.344Z,2.97
2023-02-04T09:00:36.042Z,2.38
2023-02-04T09:01:39.425Z,2.85
2023-02-04T09:02:42.594Z,2.65
2023-02-04T09:03:46.330Z,2.83
2023-02-04T09:04:49.525Z,2.85
2023-02-04T09:05:52.632Z,2.40
2023-02-04T09:06:55.943Z,2.30
2023-02-04T09:07:59.333Z,2.28
2023-02-04T09:09:02.456Z,2.42
2023-02-04T09:10:06.269Z,2.55
2023-02-04T09:11:11.350Z,2.60
2023-02-04T09:12:14.544Z,3.03
2023-02-04T09:13:17.598Z,3.33
2023-02-04T09:14:20.805Z,3.83
2023-02-04T09:15:25.165Z,4.47
2023-02-04T09:16:28.365Z,4.03
2023-02-04T09:17:31.625Z,4.47
2023-02-04T09:18:34.789Z,4.05
2023-02-04T09:19:38.009Z,3.85
2023-02-04T09:20:41.302Z,3.92
2023-02-04T09:21:44.409Z,4.13
2023-02-04T09:22:50.243Z,3.70
2023-02-04T09:23:53.389Z,4.13
2023-02-04T09:24:56.656Z,4.05
2023-02-04T09:26:01.618Z,3.97
2023-02-04T09:27:05.168Z,3.55
2023-02-04T09:28:12.699Z,4.78
2023-02-04T09:29:16.200Z,4.78
2023-02-04T09:30:19.530Z,6.00
2023-02-04T09:31:22.829Z,4.15
2023-02-04T09:32:26.237Z,4.22
2023-02-04T09:33:29.358Z,5.57
2023-02-04T09:34:32.529Z,5.65
2023-02-04T09:35:36.102Z,5.50
2023-02-04T09:36:39.247Z,5.18
2023-02-04T09:37:42.383Z,4.60
2023-02-04T09:38:45.492Z,4.18
2023-02-04T09:39:48.666Z,4.57
2023-02-04T09:41:17.299Z,4.30
2023-02-04T09:42:23.908Z,6.50
2023-02-04T09:43:32.029Z,5.40
2023-02-04T09:44:35.194Z,4.10
2023-02-04T09:45:38.695Z,4.03
2023-02-04T09:46:52.303Z,3.83
2023-02-04T09:47:58.289Z,4.78
2023-02-04T09:49:03.853Z,4.22
2023-02-04T09:50:18.579Z,4.30
2023-02-04T09:51:26.826Z,4.55
2023-02-04T09:52:30.423Z,5.72
2023-02-04T09:53:34.435Z,4.78
2023-02-04T09:54:38.426Z,4.13
2023-02-04T09:55:46.613Z,4.00
2023-02-04T09:56:50.683Z,5.70
2023-02-04T09:57:54.344Z,5.53
2023-02-04T09:58:57.470Z,4.80
2023-02-04T10:00:01.518Z,4.75
2023-02-04T10:01:22.788Z,5.22
2023-02-04T10:02:27.173Z,4.38
2023-02-04T10:03:30.473Z,3.65
2023-02-04T10:04:33.883Z,4.00
2023-02-04T10:05:37.322Z,4.70
2023-02-04T10:06:44.165Z,5.13
2023-02-04T10:07:47.685Z,5.18
2023-02-04T10:08:52.219Z,4.63
2023-02-04T10:09:56.174Z,4.72
2023-02-04T10:10:59.387Z,4.45
2023-02-04T10:12:02.608Z,4.13
2023-02-04T10:13:05.930Z,4.18
2023-02-04T10:14:21.296Z,5.85
2023-02-04T10:15:24.621Z,6.63
2023-02-04T10:16:35.128Z,5.30
2023-02-04T10:17:38.437Z,4.07
2023-02-04T10:18:42.272Z,3.83
2023-02-04T10:19:45.486Z,4.47
2023-02-04T10:20:48.724Z,4.55
2023-02-04T10:21:52.313Z,4.45
2023-02-04T10:22:56.398Z,4.45
2023-02-04T10:24:02.791Z,4.95
2023-02-04T10:25:17.110Z,5.90
2023-02-04T10:26:22.656Z,5.85
2023-02-04T10:27:25.850Z,4.88
2023-02-04T10:28:36.973Z,5.50
2023-02-04T10:29:42.326Z,4.30
2023-02-04T10:30:47.364Z,3.88
2023-02-04T10:31:51.802Z,3.95
2023-02-04T10:32:55.254Z,4.78
2023-02-04T10:34:20.695Z,5.35
2023-02-04T10:35:23.873Z,5.20
2023-02-04T10:36:27.267Z,4.70
2023-02-04T10:37:32.199Z,4.90
2023-02-04T10:38:35.499Z,4.60
2023-02-04T10:39:43.145Z,5.15
2023-02-04T10:40:49.460Z,4.80
2023-02-04T10:41:58.213Z,5.75
2023-02-04T10:43:18.605Z,4.70
2023-02-04T10:44:36.169Z,3.90
2023-02-04T10:45:39.244Z,4.15
2023-02-04T10:46:42.603Z,4.85
2023-02-04T10:47:52.542Z,4.93
2023-02-04T10:48:55.712Z,5.55
2023-02-04T10:50:15.482Z,5.30
2023-02-04T10:51:18.823Z,4.82
2023-02-04T10:52:24.872Z,4.80
2023-02-04T10:53:46.810Z,4.15
2023-02-04T10:54:50.324Z,4.50
2023-02-04T10:55:53.958Z,5.43
2023-02-04T10:57:09.224Z,5.38
2023-02-04T10:58:23.391Z,4.85
2023-02-04T10:59:29.180Z,4.18
2023-02-04T11:00:32.585Z,4.72
2023-02-04T11:01:35.911Z,4.97
2023-02-04T11:02:48.550Z,5.57
2023-02-04T11:03:52.474Z,6.18
2023-02-04T11:04:55.725Z,5.72
2023-02-04T11:06:01.116Z,5.35
2023-02-04T11:07:04.246Z,7.65
2023-02-04T11:08:24.355Z,7.85
2023-02-04T11:09:27.439Z,5.80
2023-02-04T11:10:35.153Z,6.13
2023-02-04T11:11:38.609Z,5.38
2023-02-04T11:12:45.452Z,6.00
2023-02-04T11:13:51.310Z,5.45
2023-02-04T11:14:59.414Z,4.57
2023-02-04T11:16:19.058Z,5.10
2023-02-04T11:17:29.576Z,4.43
2023-02-04T11:18:43.307Z,4.07
2023-02-04T11:19:46.610Z,5.50
2023-02-04T11:20:53.181Z,4.75
2023-02-04T11:22:08.190Z,5.25
2023-02-04T11:23:26.624Z,4.80
2023-02-04T11:24:34.118Z,4.88
2023-02-04T11:25:40.688Z,4.40
2023-02-04T11:27:12.067Z,4.43
2023-02-04T11:28:26.395Z,4.90
2023-02-04T11:29:42.853Z,4.80
2023-02-04T11:30:46.106Z,5.50
2023-02-04T11:31:49.450Z,5.90
2023-02-04T11:33:21.802Z,5.43
2023-02-04T11:34:29.680Z,4.93
2023-02-04T11:35:33.756Z,4.53
2023-02-04T11:36:59.757Z,5.00
2023-02-04T11:38:03.100Z,5.95
2023-02-04T11:39:17.161Z,4.68
2023-02-04T11:40:35.945Z,5.35
2023-02-04T11:41:39.075Z,5.43
2023-02-04T11:42:43.207Z,4.90
2023-02-04T11:43:46.742Z,5.22
2023-02-04T11:44:53.703Z,5.70
2023-02-04T11:46:16.935Z,5.10
2023-02-04T11:47:22.763Z,6.05
2023-02-04T11:48:25.831Z,5.63
2023-02-04T11:49:30.379Z,5.50
2023-02-04T11:50:35.272Z,6.30
2023-02-04T11:51:38.430Z,5.80
2023-02-04T11:52:41.485Z,6.97
2023-02-04T11:53:50.603Z,6.78
2023-02-04T11:55:00.259Z,6.53
2023-02-04T11:56:03.431Z,6.38
2023-02-04T11:57:06.850Z,6.25
2023-02-04T11:58:20.730Z,6.38
2023-02-04T11:59:23.994Z,5.85
2023-02-04T12:00:32.480Z,5.65
2023-02-04T12:01:35.633Z,5.68
2023-02-04T12:03:00.336Z,5.85
2023-02-04T12:04:24.448Z,5.28
2023-02-04T12:05:47.943Z,5.40
2023-02-04T12:07:04.761Z,5.45
2023-02-04T12:08:24.798Z,5.03
2023-02-04T12:09:32.553Z,5.13
2023-02-04T12:10:35.764Z,4.50
2023-02-04T12:11:39.002Z,5.97
2023-02-04T12:12:52.181Z,6.43
2023-02-04T12:13:58.477Z,7.38
2023-02-04T12:15:37.187Z,6.50
2023-02-04T12:16:45.187Z,5.30
2023-02-04T12:18:07.584Z,5.18
2023-02-04T12:19:12.783Z,5.22
2023-02-04T12:20:16.055Z,5.95
2023-02-04T12:21:19.641Z,5.05
2023-02-04T12:22:22.769Z,6.00
2023-02-04T12:23:28.496Z,6.78
2023-02-04T12:24:31.553Z,5.20
2023-02-04T12:25:35.182Z,5.07
2023-02-04T12:26:41.632Z,5.20
2023-02-04T12:27:48.055Z,4.78
2023-02-04T12:28:51.303Z,5.82
2023-02-04T12:29:54.382Z,5.25
2023-02-04T12:30:57.792Z,4.57
2023-02-04T12:32:01.110Z,4.85
2023-02-04T12:33:04.227Z,6.05
2023-02-04T12:34:07.407Z,5.82
2023-02-04T12:35:10.561Z,5.00
2023-02-04T12:36:13.796Z,5.75
2023-02-04T12:37:17.005Z,5.43
2023-02-04T12:38:20.843Z,4.70
2023-02-04T12:39:24.109Z,4.95
2023-02-04T12:40:27.248Z,4.45
2023-02-04T12:41:30.556Z,4.95
2023-02-04T12:42:34.020Z,5.53
2023-02-04T12:43:37.235Z,5.47
2023-02-04T12:44:40.392Z,4.32
2023-02-04T12:45:46.504Z,5.82
2023-02-04T12:46:49.883Z,5.38
2023-02-04T12:47:53.295Z,6.00
2023-02-04T12:48:56.603Z,6.55
2023-02-04T12:50:00.889Z,5.55
2023-02-04T12:51:04.713Z,5.30
2023-02-04T12:52:11.238Z,5.85
2023-02-04T12:53:14.278Z,4.90
2023-02-04T12:54:17.424Z,4.47
2023-02-04T12:55:21.421Z,4.30
2023-02-04T12:56:24.615Z,4.47
2023-02-04T12:57:28.128Z,4.47
2023-02-04T12:58:31.296Z,4.22
2023-02-04T12:59:34.499Z,4.45
2023-02-04T13:00:38.082Z,4.45
2023-02-04T13:01:41.259Z,4.22
2023-02-04T13:02:45.122Z,7.72
2023-02-04T13:03:48.249Z,10.45
2023-02-04T13:04:52.508Z,5.75
2023-02-04T13:05:55.981Z,6.00
2023-02-04T13:06:59.133Z,4.25
2023-02-04T13:08:02.645Z,5.53
2023-02-04T13:09:06.635Z,4.43
2023-02-04T13:10:11.368Z,5.22
2023-02-04T13:11:14.613Z,5.00
2023-02-04T13:12:17.784Z,22.83
2023-02-04T13:13:22.362Z,9.13
2023-02-04T13:14:25.693Z,6.82
2023-02-04T13:15:28.824Z,4.95
2023-02-04T13:16:32.036Z,3.92
2023-02-04T13:17:35.276Z,4.55
2023-02-04T13:18:39.337Z,4.03
2023-02-04T13:19:42.709Z,4.43
2023-02-04T13:20:46.251Z,3.97
2023-02-04T13:21:49.618Z,3.65
2023-02-04T13:22:52.780Z,5.18
2023-02-04T13:23:57.352Z,4.38
2023-02-04T13:25:02.178Z,4.50
2023-02-04T13:26:06.371Z,5.10
2023-02-04T13:27:09.853Z,3.50
2023-02-04T13:28:13.997Z,3.88
2023-02-04T13:29:17.670Z,4.30
2023-02-04T13:30:20.921Z,4.60
2023-02-04T13:31:24.199Z,4.03
2023-02-04T13:32:27.457Z,3.90
2023-02-04T13:33:30.562Z,4.95
2023-02-04T13:34:33.872Z,3.88
2023-02-04T13:35:38.137Z,3.85
2023-02-04T13:36:43.599Z,4.85
2023-02-04T13:37:46.859Z,4.20
2023-02-04T13:38:50.031Z,4.13
2023-02-04T13:39:53.217Z,4.57
2023-02-04T13:40:56.322Z,6.18
2023-02-04T13:41:59.384Z,5.15
2023-02-04T13:43:02.493Z,5.07
2023-02-04T13:44:05.983Z,5.25
2023-02-04T13:45:12.681Z,4.78
2023-02-04T13:46:15.881Z,4.55
2023-02-04T13:47:19.146Z,4.18
2023-02-04T13:48:22.664Z,4.25
2023-02-04T13:49:25.810Z,3.75
2023-02-04T13:50:29.161Z,3.85
2023-02-04T13:51:32.347Z,4.00
2023-02-04T13:52:35.560Z,5.20
2023-02-04T13:53:38.921Z,4.78
2023-02-04T13:54:41.999Z,4.85
2023-02-04T13:55:45.328Z,4.10
2023-02-04T13:56:48.463Z,4.00
2023-02-04T13:57:51.522Z,4.68
2023-02-04T13:58:54.926Z,5.80
2023-02-04T13:59:58.026Z,5.13
2023-02-04T14:01:01.605Z,4.57
2023-02-04T14:02:04.786Z,5.38
2023-02-04T14:03:07.869Z,5.20
2023-02-04T14:04:10.984Z,5.05
2023-02-04T14:05:14.378Z,4.95
2023-02-04T14:06:20.667Z,3.70
2023-02-04T14:07:23.917Z,3.88
2023-02-04T14:08:27.149Z,3.40
2023-02-04T14:09:30.293Z,4.30
2023-02-04T14:10:33.705Z,3.13
2023-02-04T14:11:37.483Z,3.50
2023-02-04T14:12:41.984Z,4.85
2023-02-04T14:13:45.134Z,3.63
2023-02-04T14:14:50.938Z,3.03
2023-02-04T14:15:54.053Z,3.55
2023-02-04T14:16:58.077Z,2.95
2023-02-04T14:18:01.836Z,3.80
2023-02-04T14:19:06.252Z,3.47
2023-02-04T14:20:10.351Z,4.18
2023-02-04T14:21:13.642Z,4.82
2023-02-04T14:22:17.149Z,4.40
2023-02-04T14:23:20.403Z,4.13